createdAt,value
2018-01-20T00:00:58.557Z,2.93
2018-01-20T00:01:58.610Z,3.04
2018-01-20T00:03:51.619Z,2.92
2018-01-20T00:04:51.640Z,2.95
2018-01-20T00:06:44.618Z,2.93
2018-01-20T00:07:44.667Z,2.86
2018-01-20T00:09:37.665Z,2.93
2018-01-20T00:10:37.697Z,2.95
2018-01-20T00:12:30.668Z,2.87
2018-01-20T00:13:30.722Z,2.82
2018-01-20T00:15:23.747Z,2.82
2018-01-20T00:16:23.747Z,2.77
2018-01-20T00:18:16.741Z,2.79
2018-01-20T00:19:16.780Z,2.77
2018-01-20T00:21:09.747Z,2.77
2018-01-20T00:22:09.802Z,2.83
2018-01-20T00:24:02.794Z,2.86
2018-01-20T00:25:02.832Z,2.83
2018-01-20T00:26:55.835Z,2.86
2018-01-20T00:27:55.865Z,2.90
2018-01-20T00:29:48.853Z,2.92
2018-01-20T00:30:48.887Z,2.93
2018-01-20T00:32:41.864Z,2.92
2018-01-20T00:33:41.918Z,3.00
2018-01-20T00:35:34.908Z,2.97
2018-01-20T00:36:34.941Z,2.89
2018-01-20T00:38:27.944Z,3.10
2018-01-20T00:39:28.001Z,3.13
2018-01-20T00:41:20.944Z,3.14
2018-01-20T00:42:20.998Z,3.08
2018-01-20T00:44:13.990Z,3.19
2018-01-20T00:45:14.025Z,3.10
2018-01-20T00:47:07.528Z,3.14
2018-01-20T00:48:07.559Z,3.14
2018-01-20T00:50:00.575Z,3.18
2018-01-20T00:51:00.588Z,3.21
2018-01-20T00:52:53.571Z,3.16
2018-01-20T00:53:53.628Z,3.16
2018-01-20T00:55:46.628Z,3.16
2018-01-20T00:56:46.685Z,3.22
2018-01-20T00:58:39.655Z,3.21
2018-01-20T00:59:39.684Z,3.32
2018-01-20T01:01:32.655Z,3.34
2018-01-20T01:02:32.722Z,3.32
2018-01-20T01:04:25.705Z,3.28
2018-01-20T01:05:25.737Z,3.41
2018-01-20T01:07:18.753Z,3.42
2018-01-20T01:08:18.800Z,3.41
2018-01-20T01:10:11.759Z,3.45
2018-01-20T01:11:11.792Z,3.47
2018-01-20T01:13:04.767Z,3.41
2018-01-20T01:14:04.835Z,3.44
2018-01-20T01:15:57.818Z,3.41
2018-01-20T01:16:57.847Z,3.44
2018-01-20T01:18:50.841Z,3.44
2018-01-20T01:19:50.888Z,3.44
2018-01-20T01:21:43.851Z,3.47
2018-01-20T01:22:43.908Z,3.41
2018-01-20T01:24:36.915Z,3.58
2018-01-20T01:25:36.954Z,3.53
2018-01-20T01:27:29.926Z,3.60
2018-01-20T01:28:30.007Z,3.60
2018-01-20T01:30:22.952Z,3.47
2018-01-20T01:31:22.987Z,3.45
2018-01-20T01:33:15.960Z,3.45
2018-01-20T01:34:16.033Z,3.50
2018-01-20T01:36:09.009Z,3.58
2018-01-20T01:37:09.066Z,3.53
2018-01-20T01:39:02.036Z,3.51
2018-01-20T01:40:02.088Z,3.53
2018-01-20T01:41:55.046Z,3.40
2018-01-20T01:42:55.103Z,3.51
2018-01-20T01:44:48.089Z,3.51
2018-01-20T01:45:48.124Z,3.50
2018-01-20T01:47:41.624Z,3.53
2018-01-20T01:48:41.665Z,3.48
2018-01-20T01:50:34.685Z,3.51
2018-01-20T01:51:34.705Z,3.58
2018-01-20T01:53:27.671Z,3.59
2018-01-20T01:54:27.726Z,3.42
2018-01-20T01:56:20.720Z,3.58
2018-01-20T01:57:20.744Z,3.45
2018-01-20T01:59:13.738Z,3.44
2018-01-20T02:00:13.773Z,3.47
2018-01-20T02:02:06.751Z,3.47
2018-01-20T02:03:06.807Z,3.40
2018-01-20T02:04:59.799Z,3.41
2018-01-20T02:05:59.846Z,3.42
2018-01-20T02:07:53.311Z,3.42
2018-01-20T02:08:53.365Z,3.45
2018-01-20T02:10:46.359Z,3.42
2018-01-20T02:11:46.397Z,3.44
2018-01-20T02:13:39.364Z,3.45
2018-01-20T02:14:39.417Z,3.42
2018-01-20T02:16:32.418Z,3.44
2018-01-20T02:17:32.463Z,3.50
2018-01-20T02:19:25.444Z,3.41
2018-01-20T02:20:25.477Z,3.37
2018-01-20T02:22:18.448Z,3.48
2018-01-20T02:23:18.509Z,3.44
2018-01-20T02:25:11.512Z,3.53
2018-01-20T02:26:11.526Z,3.55
2018-01-20T02:28:04.528Z,3.51
2018-01-20T02:29:04.556Z,3.60
2018-01-20T02:30:57.568Z,3.51
2018-01-20T02:31:57.583Z,3.51
2018-01-20T02:33:50.563Z,3.51
2018-01-20T02:34:50.610Z,3.48
2018-01-20T02:36:43.614Z,3.44
2018-01-20T02:37:43.637Z,3.44
2018-01-20T02:39:36.634Z,3.45
2018-01-20T02:40:36.674Z,3.44
2018-01-20T02:42:29.637Z,3.44
2018-01-20T02:43:29.698Z,3.37
2018-01-20T02:45:22.690Z,3.44
2018-01-20T02:46:22.722Z,3.44
2018-01-20T02:48:15.704Z,3.44
2018-01-20T02:49:15.800Z,3.37
2018-01-20T02:51:08.750Z,3.44
2018-01-20T02:52:08.783Z,3.41
2018-01-20T02:54:01.782Z,3.45
2018-01-20T02:55:01.814Z,3.44
2018-01-20T02:56:54.833Z,3.41
2018-01-20T02:57:54.856Z,3.44
2018-01-20T02:59:47.834Z,3.41
2018-01-20T03:00:48.117Z,3.45
2018-01-20T03:02:40.842Z,3.42
2018-01-20T03:03:40.898Z,3.45
2018-01-20T03:05:33.908Z,3.42
2018-01-20T03:06:33.926Z,3.50
2018-01-20T03:08:26.898Z,3.44
2018-01-20T03:09:26.965Z,3.47
2018-01-20T03:11:19.965Z,3.45
2018-01-20T03:12:19.977Z,3.37
2018-01-20T03:14:12.960Z,3.42
2018-01-20T03:15:13.017Z,3.40
2018-01-20T03:17:06.003Z,3.44
2018-01-20T03:18:06.036Z,3.36
2018-01-20T03:19:59.027Z,3.42
2018-01-20T03:20:59.062Z,3.31
2018-01-20T03:22:52.035Z,3.37
2018-01-20T03:23:52.090Z,3.31
2018-01-20T03:25:45.084Z,3.42
2018-01-20T03:26:45.174Z,3.37
2018-01-20T03:28:38.099Z,3.29
2018-01-20T03:29:38.148Z,3.41
2018-01-20T03:31:31.141Z,3.41
2018-01-20T03:32:31.176Z,3.32
2018-01-20T03:34:24.148Z,3.29
2018-01-20T03:35:24.217Z,3.40
2018-01-20T03:37:17.193Z,3.40
2018-01-20T03:38:17.226Z,3.34
2018-01-20T03:40:10.225Z,3.31
2018-01-20T03:41:10.255Z,3.40
2018-01-20T03:43:03.236Z,3.40
2018-01-20T03:44:03.296Z,3.34
2018-01-20T03:45:56.282Z,3.37
2018-01-20T03:46:56.317Z,3.37
2018-01-20T03:48:49.288Z,3.40
2018-01-20T03:49:49.349Z,3.41
2018-01-20T03:51:42.345Z,3.36
2018-01-20T03:52:42.371Z,3.37
2018-01-20T03:54:35.345Z,3.42
2018-01-20T03:55:35.418Z,3.41
2018-01-20T03:57:28.401Z,3.36
2018-01-20T03:58:28.431Z,3.29
2018-01-20T04:00:21.495Z,3.29
2018-01-20T04:01:21.460Z,3.18
2018-01-20T04:03:14.435Z,3.11
2018-01-20T04:04:14.487Z,3.14
2018-01-20T04:06:07.497Z,3.01
2018-01-20T04:07:07.520Z,2.93
2018-01-20T04:09:00.494Z,2.89
2018-01-20T04:10:00.548Z,2.87
2018-01-20T04:11:53.541Z,2.92
2018-01-20T04:12:53.577Z,2.85
2018-01-20T04:14:46.557Z,2.89
2018-01-20T04:15:46.601Z,2.72
2018-01-20T04:17:39.617Z,2.85
2018-01-20T04:18:39.628Z,2.87
2018-01-20T04:20:32.622Z,2.89
2018-01-20T04:21:32.657Z,2.93
2018-01-20T04:23:25.655Z,2.90
2018-01-20T04:24:25.683Z,2.92
2018-01-20T04:26:18.682Z,2.97
2018-01-20T04:27:18.727Z,2.92
2018-01-20T04:29:11.697Z,3.00
2018-01-20T04:30:11.758Z,3.03
2018-01-20T04:32:04.739Z,3.13
2018-01-20T04:33:04.774Z,3.03
2018-01-20T04:34:57.745Z,3.10
2018-01-20T04:35:57.799Z,3.14
2018-01-20T04:37:50.793Z,3.08
2018-01-20T04:38:50.826Z,3.14
2018-01-20T04:40:43.825Z,3.16
2018-01-20T04:41:43.872Z,3.16
2018-01-20T04:43:36.831Z,3.18
2018-01-20T04:44:36.896Z,3.28
2018-01-20T04:46:29.876Z,3.29
2018-01-20T04:47:29.911Z,3.34
2018-01-20T04:49:22.931Z,3.31
2018-01-20T04:50:22.938Z,3.40
2018-01-20T04:52:15.936Z,3.36
2018-01-20T04:53:16.020Z,3.32
2018-01-20T04:55:08.940Z,3.34
2018-01-20T04:56:08.991Z,3.36
2018-01-20T04:58:01.989Z,3.42
2018-01-20T04:59:02.022Z,3.42
2018-01-20T05:00:55.016Z,3.44
2018-01-20T05:01:55.048Z,3.44
2018-01-20T05:03:48.053Z,3.41
2018-01-20T05:04:48.074Z,3.42
2018-01-20T05:06:41.079Z,3.44
2018-01-20T05:07:41.109Z,3.42
2018-01-20T05:09:34.082Z,3.44
2018-01-20T05:10:34.137Z,3.44
2018-01-20T05:12:27.129Z,3.48
2018-01-20T05:13:27.163Z,3.42
2018-01-20T05:15:20.167Z,3.50
2018-01-20T05:16:20.205Z,3.41
2018-01-20T05:18:13.186Z,3.42
2018-01-20T05:19:13.222Z,3.51
2018-01-20T05:21:06.214Z,3.47
2018-01-20T05:22:06.250Z,3.53
2018-01-20T05:23:59.227Z,3.51
2018-01-20T05:24:59.279Z,3.51
2018-01-20T05:26:52.275Z,3.62
2018-01-20T05:27:52.305Z,3.59
2018-01-20T05:29:45.291Z,3.62
2018-01-20T05:30:45.360Z,3.58
2018-01-20T05:32:38.336Z,3.42
2018-01-20T05:33:38.369Z,3.53
2018-01-20T05:35:31.345Z,3.55
2018-01-20T05:36:31.400Z,3.48
2018-01-20T05:38:24.395Z,3.56
2018-01-20T05:39:24.431Z,3.53
2018-01-20T05:41:17.427Z,3.47
2018-01-20T05:42:17.468Z,3.48
2018-01-20T05:44:10.450Z,3.50
2018-01-20T05:45:10.504Z,3.55
2018-01-20T05:47:04.021Z,3.48
2018-01-20T05:48:04.034Z,3.55
2018-01-20T05:49:57.013Z,3.48
2018-01-20T05:50:57.062Z,3.47
2018-01-20T05:52:50.061Z,3.50
2018-01-20T05:53:50.118Z,3.47
2018-01-20T05:55:43.078Z,3.40
2018-01-20T05:56:43.117Z,3.42
2018-01-20T05:58:36.117Z,3.41
2018-01-20T05:59:36.152Z,3.42
2018-01-20T06:01:29.152Z,3.51
2018-01-20T06:02:29.171Z,3.51
2018-01-20T06:04:22.145Z,3.44
2018-01-20T06:05:22.203Z,3.44
2018-01-20T06:07:15.199Z,3.42
2018-01-20T06:08:15.410Z,3.55
2018-01-20T06:10:08.216Z,3.58
2018-01-20T06:11:08.269Z,3.53
2018-01-20T06:13:01.263Z,3.42
2018-01-20T06:14:01.298Z,3.47
2018-01-20T06:15:55.291Z,3.59
2018-01-20T06:16:55.325Z,3.51
2018-01-20T06:18:48.325Z,3.48
2018-01-20T06:19:48.406Z,3.55
2018-01-20T06:21:41.383Z,3.42
2018-01-20T06:22:41.389Z,3.47
2018-01-20T06:24:34.359Z,3.56
2018-01-20T06:25:34.414Z,3.58
2018-01-20T06:27:27.425Z,3.58
2018-01-20T06:28:27.443Z,3.48
2018-01-20T06:30:20.415Z,3.60
2018-01-20T06:31:20.469Z,3.58
2018-01-20T06:33:13.478Z,3.60
2018-01-20T06:34:13.500Z,3.53
2018-01-20T06:36:06.492Z,3.53
2018-01-20T06:37:06.580Z,3.58
2018-01-20T06:38:59.531Z,3.58
2018-01-20T06:39:59.562Z,3.59
2018-01-20T06:41:52.560Z,3.66
2018-01-20T06:42:52.593Z,3.58
2018-01-20T06:44:45.582Z,3.65
2018-01-20T06:45:45.622Z,3.66
2018-01-20T06:47:39.126Z,3.58
2018-01-20T06:48:39.155Z,3.62
2018-01-20T06:50:32.135Z,3.63
2018-01-20T06:51:32.183Z,3.56
2018-01-20T06:53:25.176Z,3.68
2018-01-20T06:54:25.211Z,3.65
2018-01-20T06:56:18.181Z,3.68
2018-01-20T06:57:18.237Z,3.66
2018-01-20T06:59:11.240Z,3.63
2018-01-20T07:00:11.274Z,3.65
2018-01-20T07:02:04.334Z,3.68
2018-01-20T07:03:04.375Z,3.63
2018-01-20T07:04:57.422Z,3.74
2018-01-20T07:05:57.352Z,3.74
2018-01-20T07:07:51.495Z,3.78
2018-01-20T07:08:50.611Z,3.77
2018-01-20T07:10:44.087Z,3.69
2018-01-20T07:11:44.122Z,3.76
2018-01-20T07:13:37.115Z,3.77
2018-01-20T07:14:38.144Z,3.74
2018-01-20T07:16:30.138Z,3.73
2018-01-20T07:17:30.171Z,3.80
2018-01-20T07:19:23.261Z,3.74
2018-01-20T07:20:23.201Z,3.83
2018-01-20T07:22:16.231Z,3.77
2018-01-20T07:23:16.267Z,3.78
2018-01-20T07:25:09.275Z,3.76
2018-01-20T07:26:09.325Z,3.77
2018-01-20T07:28:02.302Z,3.76
2018-01-20T07:29:02.317Z,3.78
2018-01-20T07:30:55.823Z,3.92
2018-01-20T07:31:57.487Z,3.96
2018-01-20T07:33:48.367Z,4.02
2018-01-20T07:34:48.464Z,4.01
2018-01-20T07:36:41.511Z,3.94
2018-01-20T07:37:41.467Z,4.01
2018-01-20T07:39:34.654Z,4.02
2018-01-20T07:40:34.618Z,4.01
2018-01-20T07:42:28.091Z,4.05
2018-01-20T07:43:27.555Z,4.02
2018-01-20T07:45:21.054Z,4.10
2018-01-20T07:46:21.281Z,4.06
2018-01-20T07:48:14.129Z,4.08
2018-01-20T07:49:14.374Z,4.05
2018-01-20T07:51:07.140Z,4.10
2018-01-20T07:52:07.220Z,4.02
2018-01-20T07:54:02.778Z,4.04
2018-01-20T07:55:02.848Z,4.12
2018-01-20T07:56:56.252Z,4.19
2018-01-20T07:57:55.776Z,4.10
2018-01-20T07:59:48.682Z,4.08
2018-01-20T08:00:48.732Z,4.13
2018-01-20T08:02:41.784Z,4.02
2018-01-20T08:03:41.759Z,4.14
2018-01-20T08:05:34.742Z,4.16
2018-01-20T08:06:34.790Z,4.17
2018-01-20T08:08:27.788Z,4.10
2018-01-20T08:09:27.827Z,4.12
2018-01-20T08:11:20.926Z,4.04
2018-01-20T08:12:20.858Z,4.08
2018-01-20T08:14:13.953Z,4.01
2018-01-20T08:15:13.975Z,4.01
2018-01-20T08:17:07.067Z,4.02
2018-01-20T08:18:07.149Z,4.10
2018-01-20T08:19:59.970Z,4.12
2018-01-20T08:21:00.103Z,4.05
2018-01-20T08:22:53.015Z,4.06
2018-01-20T08:23:53.196Z,4.17
2018-01-20T08:25:46.525Z,4.49
2018-01-20T08:26:46.564Z,4.48
2018-01-20T08:28:39.556Z,5.04
2018-01-20T08:29:39.567Z,5.08
2018-01-20T08:31:32.750Z,4.96
2018-01-20T08:32:32.595Z,4.93
2018-01-20T08:34:25.631Z,4.62
2018-01-20T08:35:25.664Z,4.53
2018-01-20T08:37:18.659Z,4.50
2018-01-20T08:38:18.710Z,4.45
2018-01-20T08:40:11.669Z,4.44
2018-01-20T08:41:11.710Z,4.48
2018-01-20T08:43:04.734Z,4.37
2018-01-20T08:44:04.767Z,4.37
2018-01-20T08:45:57.704Z,4.32
2018-01-20T08:46:57.766Z,4.38
2018-01-20T08:48:50.757Z,4.41
2018-01-20T08:49:50.916Z,4.48
2018-01-20T08:51:43.764Z,4.63
2018-01-20T08:52:43.855Z,4.63
2018-01-20T08:54:36.815Z,4.82
2018-01-20T08:55:36.863Z,4.71
2018-01-20T08:57:29.844Z,4.55
2018-01-20T08:58:29.889Z,4.53
2018-01-20T09:00:22.925Z,4.44
2018-01-20T09:01:22.931Z,4.48
2018-01-20T09:03:15.922Z,4.52
2018-01-20T09:04:15.944Z,4.50
2018-01-20T09:06:08.978Z,4.56
2018-01-20T09:07:09.021Z,4.58
2018-01-20T09:09:02.055Z,4.62
2018-01-20T09:10:02.006Z,4.71
2018-01-20T09:11:55.010Z,4.75
2018-01-20T09:12:55.041Z,4.74
2018-01-20T09:14:48.041Z,4.80
2018-01-20T09:15:48.077Z,4.87
2018-01-20T09:17:41.048Z,4.89
2018-01-20T09:18:41.116Z,4.89
2018-01-20T09:20:34.100Z,4.75
2018-01-20T09:21:34.140Z,4.67
2018-01-20T09:23:27.126Z,4.59
2018-01-20T09:24:27.160Z,4.62
2018-01-20T09:26:20.178Z,4.75
2018-01-20T09:27:20.215Z,4.80
2018-01-20T09:29:13.240Z,4.80
2018-01-20T09:30:13.220Z,4.87
2018-01-20T09:32:06.301Z,4.93
2018-01-20T09:33:06.252Z,4.86
2018-01-20T09:34:59.250Z,4.96
2018-01-20T09:35:59.287Z,4.90
2018-01-20T09:37:52.346Z,4.92
2018-01-20T09:38:52.312Z,4.92
2018-01-20T09:40:45.347Z,4.96
2018-01-20T09:41:45.347Z,4.92
2018-01-20T09:43:38.342Z,4.82
2018-01-20T09:44:38.379Z,4.92
2018-01-20T09:46:31.466Z,4.82
2018-01-20T09:47:31.412Z,4.67
2018-01-20T09:49:24.496Z,4.78
2018-01-20T09:50:24.445Z,4.63
2018-01-20T09:52:17.415Z,4.70
2018-01-20T09:53:17.469Z,4.87
2018-01-20T09:55:10.477Z,4.71
2018-01-20T09:56:10.531Z,4.71
2018-01-20T09:58:03.480Z,4.74
2018-01-20T09:59:03.537Z,4.87
2018-01-20T10:00:56.571Z,4.78
2018-01-20T10:01:56.575Z,4.75
2018-01-20T10:03:49.649Z,4.86
2018-01-20T10:04:49.658Z,4.75
2018-01-20T10:06:42.569Z,4.86
2018-01-20T10:07:42.625Z,4.80
2018-01-20T10:09:35.665Z,4.90
2018-01-20T10:10:35.655Z,4.96
2018-01-20T10:12:28.635Z,4.86
2018-01-20T10:13:28.694Z,4.84
2018-01-20T10:15:21.736Z,4.90
2018-01-20T10:16:21.716Z,4.94
2018-01-20T10:18:14.752Z,4.97
2018-01-20T10:19:14.748Z,5.04
2018-01-20T10:21:07.766Z,4.99
2018-01-20T10:22:07.781Z,5.08
2018-01-20T10:24:00.785Z,5.04
2018-01-20T10:25:00.814Z,5.20
2018-01-20T10:26:53.903Z,5.28
2018-01-20T10:27:53.844Z,5.29
2018-01-20T10:29:46.840Z,5.23
2018-01-20T10:30:46.879Z,5.23
2018-01-20T10:32:39.856Z,5.17
2018-01-20T10:33:39.905Z,5.17
2018-01-20T10:35:32.902Z,5.11
2018-01-20T10:36:32.941Z,5.17
2018-01-20T10:38:26.043Z,5.32
2018-01-20T10:39:25.983Z,5.32
2018-01-20T10:41:19.151Z,5.36
2018-01-20T10:42:19.019Z,5.32
2018-01-20T10:44:12.128Z,5.33
2018-01-20T10:45:12.029Z,5.30
2018-01-20T10:47:05.057Z,5.38
2018-01-20T10:48:05.069Z,5.47
2018-01-20T10:49:58.068Z,5.56
2018-01-20T10:50:58.117Z,5.50
2018-01-20T10:52:51.079Z,5.50
2018-01-20T10:53:51.137Z,5.43
2018-01-20T10:55:44.146Z,5.54
2018-01-20T10:56:44.169Z,5.59
2018-01-20T10:58:37.172Z,5.65
2018-01-20T10:59:37.206Z,5.62
2018-01-20T11:01:30.199Z,5.62
2018-01-20T11:02:30.232Z,5.64
2018-01-20T11:04:23.269Z,5.75
2018-01-20T11:05:23.297Z,5.73
2018-01-20T11:07:16.301Z,5.79
2018-01-20T11:08:16.302Z,5.65
2018-01-20T11:10:09.299Z,5.69
2018-01-20T11:11:09.329Z,5.80
2018-01-20T11:13:02.306Z,5.86
2018-01-20T11:14:02.363Z,5.86
2018-01-20T11:15:55.405Z,5.80
2018-01-20T11:16:55.397Z,5.69
2018-01-20T11:18:48.452Z,5.69
2018-01-20T11:19:48.432Z,5.62
2018-01-20T11:21:41.464Z,5.72
2018-01-20T11:22:41.463Z,5.69
2018-01-20T11:24:34.459Z,5.72
2018-01-20T11:25:34.525Z,5.73
2018-01-20T11:27:27.576Z,5.84
2018-01-20T11:28:27.534Z,5.86
2018-01-20T11:30:20.530Z,5.87
2018-01-20T11:31:20.625Z,5.76
2018-01-20T11:33:13.539Z,5.72
2018-01-20T11:34:13.596Z,5.73
2018-01-20T11:36:06.595Z,5.76
2018-01-20T11:37:06.628Z,5.84
2018-01-20T11:38:59.623Z,5.73
2018-01-20T11:39:59.659Z,5.91
2018-01-20T11:41:52.657Z,5.91
2018-01-20T11:42:52.691Z,5.86
2018-01-20T11:44:45.716Z,5.71
2018-01-20T11:45:45.733Z,5.72
2018-01-20T11:47:39.253Z,5.64
2018-01-20T11:48:39.435Z,5.66
2018-01-20T11:50:32.281Z,5.66
2018-01-20T11:51:32.303Z,5.73
2018-01-20T11:53:25.793Z,5.71
2018-01-20T11:54:25.877Z,5.76
2018-01-20T11:56:18.874Z,5.79
2018-01-20T11:57:18.861Z,5.75
2018-01-20T11:59:11.942Z,5.53
2018-01-20T12:00:11.894Z,5.62
2018-01-20T12:02:04.902Z,5.73
2018-01-20T12:03:04.929Z,5.80
2018-01-20T12:04:57.946Z,5.83
2018-01-20T12:05:57.960Z,5.80
2018-01-20T12:07:50.936Z,5.93
2018-01-20T12:08:50.992Z,5.94
2018-01-20T12:10:43.990Z,6.08
2018-01-20T12:11:44.024Z,6.09
2018-01-20T12:13:37.042Z,6.22
2018-01-20T12:14:37.059Z,6.20
2018-01-20T12:16:30.057Z,6.26
2018-01-20T12:17:30.096Z,6.24
2018-01-20T12:19:23.096Z,6.26
2018-01-20T12:20:23.165Z,6.24
2018-01-20T12:22:16.170Z,6.27
2018-01-20T12:23:16.177Z,6.28
2018-01-20T12:25:09.157Z,6.30
2018-01-20T12:26:09.193Z,6.20
2018-01-20T12:28:02.196Z,6.11
2018-01-20T12:29:02.230Z,6.04
2018-01-20T12:30:55.228Z,6.01
2018-01-20T12:31:55.266Z,6.09
2018-01-20T12:33:48.251Z,6.07
2018-01-20T12:34:48.305Z,5.94
2018-01-20T12:36:41.297Z,6.14
2018-01-20T12:37:41.333Z,6.12
2018-01-20T12:39:34.352Z,6.20
2018-01-20T12:40:34.378Z,6.14
2018-01-20T12:42:27.384Z,6.11
2018-01-20T12:43:27.423Z,6.12
2018-01-20T12:45:20.416Z,6.17
2018-01-20T12:46:20.450Z,6.22
2018-01-20T12:48:13.427Z,6.19
2018-01-20T12:49:13.484Z,6.20
2018-01-20T12:51:06.481Z,6.22
2018-01-20T12:52:06.524Z,6.24
2018-01-20T12:53:59.496Z,6.19
2018-01-20T12:54:59.548Z,6.24
2018-01-20T12:56:52.546Z,6.19
2018-01-20T12:57:52.584Z,6.19
2018-01-20T12:59:45.568Z,6.19
2018-01-20T13:00:45.615Z,6.09
2018-01-20T13:02:38.610Z,6.12
2018-01-20T13:03:38.647Z,6.12
2018-01-20T13:05:31.656Z,6.27
2018-01-20T13:06:31.682Z,6.22
2018-01-20T13:08:24.659Z,6.19
2018-01-20T13:09:24.713Z,6.24
2018-01-20T13:11:17.712Z,6.07
2018-01-20T13:12:17.745Z,6.17
2018-01-20T13:14:10.727Z,6.14
2018-01-20T13:15:10.780Z,6.16
2018-01-20T13:17:03.776Z,6.20
2018-01-20T13:18:03.810Z,6.12
2018-01-20T13:19:56.786Z,6.08
2018-01-20T13:20:56.842Z,6.12
2018-01-20T13:22:49.866Z,6.14
2018-01-20T13:23:49.899Z,6.12
2018-01-20T13:25:43.087Z,6.07
2018-01-20T13:26:42.963Z,6.07
2018-01-20T13:28:36.025Z,6.12
2018-01-20T13:29:35.978Z,6.14
2018-01-20T13:31:28.990Z,6.11
2018-01-20T13:32:28.999Z,6.07
2018-01-20T13:34:22.122Z,6.02
2018-01-20T13:35:22.040Z,6.04
2018-01-20T13:37:15.171Z,6.09
2018-01-20T13:38:15.076Z,6.07
2018-01-20T13:40:08.051Z,6.12
2018-01-20T13:41:08.105Z,6.04
2018-01-20T13:43:01.102Z,6.01
2018-01-20T13:44:01.138Z,6.04
2018-01-20T13:45:54.183Z,6.04
2018-01-20T13:46:54.177Z,6.02
2018-01-20T13:48:47.158Z,6.07
2018-01-20T13:49:47.214Z,6.09
2018-01-20T13:51:40.233Z,6.02
2018-01-20T13:52:40.242Z,6.04
2018-01-20T13:54:33.224Z,5.98
2018-01-20T13:55:33.274Z,5.90
2018-01-20T13:57:26.298Z,5.89
2018-01-20T13:58:26.310Z,5.91
2018-01-20T14:00:19.286Z,5.98
2018-01-20T14:01:19.342Z,6.14
2018-01-20T14:03:12.421Z,6.09
2018-01-20T14:04:12.375Z,6.09
2018-01-20T14:06:05.391Z,5.90
2018-01-20T14:07:05.407Z,5.89
2018-01-20T14:08:58.426Z,5.97
2018-01-20T14:09:58.442Z,5.97
2018-01-20T14:11:51.438Z,5.93
2018-01-20T14:12:51.473Z,5.94
2018-01-20T14:14:44.455Z,5.98
2018-01-20T14:15:44.563Z,5.93
2018-01-20T14:17:37.504Z,5.97
2018-01-20T14:18:37.537Z,5.87
2018-01-20T14:20:30.520Z,5.93
2018-01-20T14:21:30.574Z,5.89
2018-01-20T14:23:23.565Z,5.82
2018-01-20T14:24:23.602Z,5.86
2018-01-20T14:26:16.604Z,5.73
2018-01-20T14:27:16.633Z,5.76
2018-01-20T14:29:09.608Z,5.79
2018-01-20T14:30:09.664Z,5.82
2018-01-20T14:32:02.667Z,5.82
2018-01-20T14:33:02.697Z,5.80
2018-01-20T14:34:55.678Z,5.82
2018-01-20T14:35:55.729Z,5.71
2018-01-20T14:37:48.723Z,5.76
2018-01-20T14:38:48.756Z,5.76
2018-01-20T14:40:41.741Z,5.73
2018-01-20T14:41:41.790Z,5.76
2018-01-20T14:43:34.787Z,5.75
2018-01-20T14:44:34.823Z,5.79
2018-01-20T14:46:27.850Z,5.75
2018-01-20T14:47:27.856Z,5.79
2018-01-20T14:49:20.858Z,5.76
2018-01-20T14:50:20.888Z,5.76
2018-01-20T14:52:13.901Z,5.76
2018-01-20T14:53:13.944Z,5.80
2018-01-20T14:55:06.912Z,5.69
2018-01-20T14:56:06.967Z,5.69
2018-01-20T14:57:59.975Z,5.61
2018-01-20T14:59:00.011Z,5.66
2018-01-20T15:00:52.993Z,5.59
2018-01-20T15:01:53.044Z,5.65
2018-01-20T15:03:46.043Z,5.59
2018-01-20T15:04:46.119Z,5.64
2018-01-20T15:06:39.079Z,5.54
2018-01-20T15:07:39.111Z,5.51
2018-01-20T15:09:32.652Z,5.56
2018-01-20T15:10:32.668Z,5.56
2018-01-20T15:12:25.662Z,5.56
2018-01-20T15:13:25.698Z,5.59
2018-01-20T15:15:18.676Z,5.62
2018-01-20T15:16:18.732Z,5.57
2018-01-20T15:18:11.731Z,5.48
2018-01-20T15:19:11.769Z,5.47
2018-01-20T15:21:04.805Z,5.48
2018-01-20T15:22:04.796Z,5.44
2018-01-20T15:23:57.793Z,5.46
2018-01-20T15:24:57.842Z,5.47
2018-01-20T15:26:50.842Z,5.47
2018-01-20T15:27:50.872Z,5.44
2018-01-20T15:29:43.852Z,5.39
2018-01-20T15:30:43.904Z,5.38
2018-01-20T15:32:36.928Z,5.38
2018-01-20T15:33:36.932Z,5.39
2018-01-20T15:35:29.907Z,5.35
2018-01-20T15:36:29.962Z,5.32
2018-01-20T15:38:22.966Z,5.35
2018-01-20T15:39:23.001Z,5.25
2018-01-20T15:41:15.977Z,5.29
2018-01-20T15:42:16.033Z,5.26
2018-01-20T15:44:09.032Z,5.26
2018-01-20T15:45:09.063Z,5.21
2018-01-20T15:47:02.064Z,5.25
2018-01-20T15:48:02.099Z,5.23
2018-01-20T15:49:55.074Z,5.21
2018-01-20T15:50:55.129Z,5.20
2018-01-20T15:52:48.127Z,5.20
2018-01-20T15:53:48.162Z,5.23
2018-01-20T15:55:41.152Z,5.17
2018-01-20T15:56:41.203Z,5.11
2018-01-20T15:58:34.200Z,5.07
2018-01-20T15:59:34.234Z,5.10
2018-01-20T16:01:27.217Z,5.04
2018-01-20T16:02:27.268Z,5.02
2018-01-20T16:04:20.266Z,5.00
2018-01-20T16:05:20.300Z,5.08
2018-01-20T16:07:13.320Z,4.92
2018-01-20T16:08:13.337Z,4.87
2018-01-20T16:10:06.309Z,4.97
2018-01-20T16:11:06.364Z,4.99
2018-01-20T16:12:59.871Z,5.05
2018-01-20T16:13:59.402Z,4.89
2018-01-20T16:15:52.367Z,4.90
2018-01-20T16:16:52.622Z,4.92
2018-01-20T16:18:45.521Z,4.87
2018-01-20T16:19:45.453Z,4.90
2018-01-20T16:21:38.434Z,4.90
2018-01-20T16:22:38.484Z,5.02
2018-01-20T16:24:31.541Z,4.90
2018-01-20T16:25:31.515Z,4.92
2018-01-20T16:27:24.527Z,4.94
2018-01-20T16:28:24.544Z,4.92
2018-01-20T16:30:17.520Z,5.02
2018-01-20T16:31:17.625Z,4.92
2018-01-20T16:33:10.587Z,4.94
2018-01-20T16:34:10.607Z,4.90
2018-01-20T16:36:03.595Z,4.90
2018-01-20T16:37:03.637Z,4.96
2018-01-20T16:38:56.639Z,4.89
2018-01-20T16:39:56.672Z,4.90
2018-01-20T16:41:49.649Z,4.90
2018-01-20T16:42:49.704Z,4.89
2018-01-20T16:44:42.730Z,4.89
2018-01-20T16:45:42.736Z,4.92
2018-01-20T16:47:35.732Z,4.89
2018-01-20T16:48:35.767Z,4.86
2018-01-20T16:50:28.747Z,4.96
2018-01-20T16:51:28.798Z,4.78
2018-01-20T16:53:21.850Z,4.86
2018-01-20T16:54:21.882Z,4.80
2018-01-20T16:56:14.849Z,4.90
2018-01-20T16:57:14.927Z,4.77
2018-01-20T16:59:07.897Z,4.77
2018-01-20T17:00:07.931Z,4.86
2018-01-20T17:02:00.908Z,4.93
2018-01-20T17:03:00.960Z,4.87
2018-01-20T17:04:53.959Z,4.78
2018-01-20T17:05:53.993Z,4.78
2018-01-20T17:07:47.013Z,4.84
2018-01-20T17:08:47.056Z,4.70
2018-01-20T17:10:40.042Z,4.75
2018-01-20T17:11:40.085Z,4.78
2018-01-20T17:13:33.080Z,4.78
2018-01-20T17:14:33.119Z,4.80
2018-01-20T17:16:26.095Z,4.66
2018-01-20T17:17:26.148Z,4.77
2018-01-20T17:19:19.144Z,4.56
2018-01-20T17:20:19.182Z,4.60
2018-01-20T17:22:12.195Z,4.62
2018-01-20T17:23:12.212Z,4.58
2018-01-20T17:25:05.214Z,4.68
2018-01-20T17:26:05.291Z,4.62
2018-01-20T17:27:58.237Z,4.66
2018-01-20T17:28:58.288Z,4.74
2018-01-20T17:30:51.288Z,4.62
2018-01-20T17:31:51.337Z,4.63
2018-01-20T17:33:44.336Z,4.60
2018-01-20T17:34:44.368Z,4.59
2018-01-20T17:36:37.323Z,4.59
2018-01-20T17:37:37.373Z,4.66
2018-01-20T17:39:30.368Z,4.59
2018-01-20T17:40:30.403Z,4.59
2018-01-20T17:42:23.380Z,4.63
2018-01-20T17:43:23.437Z,4.62
2018-01-20T17:45:16.437Z,4.66
2018-01-20T17:46:16.466Z,4.62
2018-01-20T17:48:09.463Z,4.59
2018-01-20T17:49:09.499Z,4.66
2018-01-20T17:51:02.481Z,4.70
2018-01-20T17:52:02.537Z,4.62
2018-01-20T17:53:55.532Z,4.73
2018-01-20T17:54:55.762Z,4.78
2018-01-20T17:56:48.600Z,4.70
2018-01-20T17:57:48.599Z,4.63
2018-01-20T17:59:41.596Z,4.73
2018-01-20T18:00:41.632Z,4.71
2018-01-20T18:02:34.616Z,4.63
2018-01-20T18:03:34.681Z,4.74
2018-01-20T18:05:27.662Z,4.82
2018-01-20T18:06:27.698Z,4.63
2018-01-20T18:08:20.694Z,4.66
2018-01-20T18:09:20.729Z,4.63
2018-01-20T18:11:13.705Z,4.67
2018-01-20T18:12:13.760Z,4.71
2018-01-20T18:14:06.756Z,4.71
2018-01-20T18:15:06.792Z,4.71
2018-01-20T18:16:59.770Z,4.71
2018-01-20T18:17:59.836Z,4.78
2018-01-20T18:19:52.820Z,4.75
2018-01-20T18:20:52.858Z,4.71
2018-01-20T18:22:48.358Z,4.68
2018-01-20T18:23:46.409Z,4.62
2018-01-20T18:25:39.398Z,4.70
2018-01-20T18:26:39.418Z,4.73
2018-01-20T18:28:33.422Z,4.78
2018-01-20T18:29:32.683Z,4.75
2018-01-20T18:31:25.512Z,4.68
2018-01-20T18:32:25.579Z,4.84
2018-01-20T18:34:18.933Z,4.84
2018-01-20T18:35:18.598Z,4.84
2018-01-20T18:37:11.555Z,4.75
2018-01-20T18:38:12.852Z,4.75
2018-01-20T18:40:04.673Z,4.75
2018-01-20T18:41:04.637Z,4.60
2018-01-20T18:42:57.709Z,4.63
2018-01-20T18:43:59.723Z,4.66
2018-01-20T18:45:50.664Z,4.68
2018-01-20T18:46:50.699Z,4.63
2018-01-20T18:48:43.833Z,4.77
2018-01-20T18:49:43.850Z,4.78
2018-01-20T18:51:36.720Z,4.80
2018-01-20T18:52:36.771Z,4.68
2018-01-20T18:54:31.279Z,4.82
2018-01-20T18:55:31.306Z,4.78
2018-01-20T18:57:24.278Z,4.80
2018-01-20T18:58:24.334Z,4.70
2018-01-20T19:00:17.852Z,4.78
2018-01-20T19:01:17.889Z,4.80
2018-01-20T19:03:10.882Z,4.73
2018-01-20T19:04:10.936Z,4.63
2018-01-20T19:06:03.925Z,4.66
2018-01-20T19:07:03.954Z,4.66
2018-01-20T19:08:57.187Z,4.63
2018-01-20T19:09:57.007Z,4.60
2018-01-20T19:11:49.977Z,4.58